createdAt,value
2023-03-31T00:00:55.430Z,96593.91
2023-03-31T00:03:27.734Z,96596.63
2023-03-31T00:06:01.177Z,96590.66
2023-03-31T00:08:33.620Z,96584.94
2023-03-31T00:11:07.350Z,96582.81
2023-03-31T00:13:39.584Z,96578.34
2023-03-31T00:16:11.325Z,96573.00
2023-03-31T00:18:43.040Z,96573.47
2023-03-31T00:21:18.294Z,96577.06
2023-03-31T00:24:10.947Z,96570.31
2023-03-31T00:26:43.581Z,96569.34
2023-03-31T00:29:16.092Z,96564.72
2023-03-31T00:31:47.932Z,96559.84
2023-03-31T00:34:22.211Z,96549.09
2023-03-31T00:36:54.490Z,96540.78
2023-03-31T00:39:26.903Z,96538.41
2023-03-31T00:41:58.760Z,96533.69
2023-03-31T00:44:31.555Z,96538.56
2023-03-31T00:47:20.079Z,96540.16
2023-03-31T00:49:56.652Z,96552.75
2023-03-31T00:52:35.756Z,96556.25
2023-03-31T00:55:17.645Z,96553.88
2023-03-31T00:57:52.560Z,96542.81
2023-03-31T01:00:24.487Z,96522.66
2023-03-31T01:03:01.504Z,96516.94
2023-03-31T01:05:45.585Z,96517.28
2023-03-31T01:08:21.734Z,96501.03
2023-03-31T01:10:58.376Z,96507.50
2023-03-31T01:13:31.037Z,96516.03
2023-03-31T01:16:03.414Z,96517.59
2023-03-31T01:18:36.539Z,96523.28
2023-03-31T01:21:30.253Z,96529.25
2023-03-31T01:24:13.634Z,96525.47
2023-03-31T01:27:21.050Z,96503.41
2023-03-31T01:30:11.195Z,96497.06
2023-03-31T01:33:15.860Z,96483.19
2023-03-31T01:36:21.825Z,96473.75
2023-03-31T01:39:05.501Z,96471.03
2023-03-31T01:41:37.737Z,96462.84
2023-03-31T01:44:24.699Z,96455.28
2023-03-31T01:47:14.210Z,96462.16
2023-03-31T01:49:54.756Z,96453.84
2023-03-31T01:52:57.015Z,96453.22
2023-03-31T01:55:39.549Z,96440.69
2023-03-31T01:58:13.676Z,96421.66
2023-03-31T02:01:14.527Z,96417.56
2023-03-31T02:04:05.515Z,96405.59
2023-03-31T02:06:43.498Z,96401.88
2023-03-31T02:09:25.287Z,96396.69
2023-03-31T02:12:00.113Z,96377.09
2023-03-31T02:14:37.659Z,96370.34
2023-03-31T02:17:18.801Z,96372.13
2023-03-31T02:19:53.829Z,96380.34
2023-03-31T02:22:33.801Z,96373.34
2023-03-31T02:25:11.832Z,96378.41
2023-03-31T02:27:51.434Z,96365.28
2023-03-31T02:30:35.374Z,96361.66
2023-03-31T02:33:08.289Z,96365.53
2023-03-31T02:35:41.261Z,96335.41
2023-03-31T02:38:13.149Z,96304.97
2023-03-31T02:40:45.780Z,96306.47
2023-03-31T02:43:17.972Z,96304.41
2023-03-31T02:45:51.390Z,96297.22
2023-03-31T02:48:28.303Z,96299.63
2023-03-31T02:51:12.706Z,96295.81
2023-03-31T02:53:59.091Z,96296.59
2023-03-31T02:57:24.927Z,96312.63
2023-03-31T03:00:34.850Z,96326.19
2023-03-31T03:03:23.803Z,96335.97
2023-03-31T03:06:30.068Z,96328.09
2023-03-31T03:09:14.841Z,96336.63
2023-03-31T03:12:11.440Z,96326.03
2023-03-31T03:15:02.682Z,96289.00
2023-03-31T03:17:43.882Z,96276.56
2023-03-31T03:20:18.937Z,96255.44
2023-03-31T03:22:51.188Z,96250.56
2023-03-31T03:25:22.851Z,96251.03
2023-03-31T03:27:54.658Z,96245.28
2023-03-31T03:30:26.660Z,96230.13
2023-03-31T03:32:58.594Z,96205.97
2023-03-31T03:35:30.488Z,96227.84
2023-03-31T03:38:02.408Z,96226.25
2023-03-31T03:40:34.241Z,96201.72
2023-03-31T03:43:05.960Z,96217.59
2023-03-31T03:45:37.678Z,96219.34
2023-03-31T03:48:10.565Z,96203.16
2023-03-31T03:50:42.235Z,96197.81
2023-03-31T03:53:15.341Z,96181.72
2023-03-31T03:55:47.584Z,96192.03
2023-03-31T03:58:19.556Z,96177.81
2023-03-31T04:00:51.263Z,96175.56
2023-03-31T04:03:23.286Z,96189.16
2023-03-31T04:05:55.189Z,96192.78
2023-03-31T04:08:27.203Z,96194.06
2023-03-31T04:10:58.993Z,96185.56
2023-03-31T04:13:30.866Z,96184.19
2023-03-31T04:16:02.696Z,96188.38
2023-03-31T04:18:35.544Z,96176.69
2023-03-31T04:21:07.310Z,96179.41
2023-03-31T04:23:40.325Z,96181.22
2023-03-31T04:26:14.821Z,96178.00
2023-03-31T04:28:46.783Z,96157.91
2023-03-31T04:31:18.980Z,96142.53
2023-03-31T04:33:54.507Z,96151.25
2023-03-31T04:36:26.671Z,96145.34
2023-03-31T04:38:59.856Z,96146.72
2023-03-31T04:41:31.873Z,96137.63
2023-03-31T04:44:03.771Z,96147.22
2023-03-31T04:46:35.931Z,96143.72
2023-03-31T04:49:07.790Z,96145.34
2023-03-31T04:51:40.247Z,96142.88
2023-03-31T04:54:12.591Z,96161.53
2023-03-31T04:56:44.683Z,96139.41
2023-03-31T04:59:16.964Z,96146.41
2023-03-31T05:01:50.562Z,96167.97
2023-03-31T05:04:22.886Z,96157.19
2023-03-31T05:06:54.742Z,96168.25
2023-03-31T05:09:26.773Z,96162.81
2023-03-31T05:11:59.289Z,96162.47
2023-03-31T05:14:31.454Z,96169.47
2023-03-31T05:17:03.688Z,96161.25
2023-03-31T05:19:35.791Z,96159.66
2023-03-31T05:22:08.659Z,96153.75
2023-03-31T05:24:40.693Z,96157.81
2023-03-31T05:27:13.013Z,96153.38
2023-03-31T05:29:44.805Z,96152.59
2023-03-31T05:32:17.086Z,96132.16
2023-03-31T05:34:52.172Z,96146.72
2023-03-31T05:37:25.956Z,96151.63
2023-03-31T05:39:58.046Z,96163.69
2023-03-31T05:42:30.485Z,96165.09
2023-03-31T05:45:02.276Z,96154.50
2023-03-31T05:47:34.330Z,96155.22
2023-03-31T05:50:06.917Z,96145.34
2023-03-31T05:52:38.702Z,96158.88
2023-03-31T05:55:10.641Z,96165.41
2023-03-31T05:57:42.336Z,96177.06
2023-03-31T06:00:14.989Z,96182.34
2023-03-31T06:02:47.010Z,96203.66
2023-03-31T06:05:18.815Z,96189.81
2023-03-31T06:07:51.345Z,96194.97
2023-03-31T06:10:22.968Z,96198.59
2023-03-31T06:12:55.225Z,96184.94
2023-03-31T06:15:27.084Z,96167.13
2023-03-31T06:17:59.729Z,96194.09
2023-03-31T06:20:31.624Z,96200.13
2023-03-31T06:23:03.863Z,96197.75
2023-03-31T06:25:50.296Z,96199.00
2023-03-31T06:28:23.268Z,96213.22
2023-03-31T06:31:07.218Z,96214.38
2023-03-31T06:33:41.721Z,96206.50
2023-03-31T06:36:17.003Z,96219.06
2023-03-31T06:38:50.222Z,96207.13
2023-03-31T06:41:22.456Z,96205.84
2023-03-31T06:43:54.352Z,96190.09
2023-03-31T06:46:26.377Z,96181.75
2023-03-31T06:48:58.084Z,96199.72
2023-03-31T06:51:31.133Z,96193.41
2023-03-31T06:54:04.567Z,96203.63
2023-03-31T06:56:36.373Z,96193.09
2023-03-31T06:59:08.300Z,96197.97
2023-03-31T07:01:40.639Z,96196.06
2023-03-31T07:04:12.576Z,96191.50
2023-03-31T07:06:44.458Z,96212.91
2023-03-31T07:09:16.237Z,96188.50
2023-03-31T07:11:48.191Z,96190.53
2023-03-31T07:14:20.367Z,96194.44
2023-03-31T07:16:52.268Z,96200.53
2023-03-31T07:19:24.619Z,96195.66
2023-03-31T07:21:57.323Z,96188.75
2023-03-31T07:24:29.095Z,96189.47
2023-03-31T07:27:00.897Z,96199.09
2023-03-31T07:29:33.360Z,96190.47
2023-03-31T07:32:05.333Z,96207.75
2023-03-31T07:34:38.162Z,96193.69
2023-03-31T07:37:10.318Z,96196.97
2023-03-31T07:39:43.779Z,96184.78
2023-03-31T07:42:16.228Z,96196.13
2023-03-31T07:44:48.538Z,96173.31
2023-03-31T07:47:21.141Z,96180.25
2023-03-31T07:49:53.442Z,96177.81
2023-03-31T07:52:25.782Z,96172.91
2023-03-31T07:54:57.579Z,96170.81
2023-03-31T07:57:29.866Z,96166.03
2023-03-31T08:00:02.657Z,96174.41
2023-03-31T08:02:44.142Z,96183.34
2023-03-31T08:05:19.505Z,96170.47
2023-03-31T08:07:51.910Z,96173.28
2023-03-31T08:10:27.069Z,96171.75
2023-03-31T08:12:59.343Z,96174.22
2023-03-31T08:15:31.389Z,96164.78
2023-03-31T08:18:05.109Z,96173.44
2023-03-31T08:20:37.023Z,96176.09
2023-03-31T08:23:09.013Z,96183.59
2023-03-31T08:25:42.060Z,96189.31
2023-03-31T08:28:13.973Z,96187.84
2023-03-31T08:30:45.805Z,96188.75
2023-03-31T08:33:17.734Z,96172.84
2023-03-31T08:35:49.415Z,96172.28
2023-03-31T08:38:21.116Z,96168.84
2023-03-31T08:40:59.782Z,96176.34
2023-03-31T08:43:40.302Z,96185.28
2023-03-31T08:46:17.967Z,96190.44
2023-03-31T08:48:56.055Z,96167.34
2023-03-31T08:51:33.751Z,96179.25
2023-03-31T08:54:19.559Z,96181.00
2023-03-31T08:56:53.589Z,96178.31
2023-03-31T08:59:34.820Z,96209.03
2023-03-31T09:02:28.027Z,96189.41
2023-03-31T09:05:16.209Z,96196.06
2023-03-31T09:08:13.144Z,96172.63
2023-03-31T09:10:54.789Z,96187.03
2023-03-31T09:13:56.664Z,96174.19
2023-03-31T09:16:51.627Z,96158.38
2023-03-31T09:19:43.301Z,96159.91
2023-03-31T09:22:41.992Z,96161.91
2023-03-31T09:25:21.353Z,96177.34
2023-03-31T09:27:58.109Z,96159.75
2023-03-31T09:30:33.899Z,96155.50
2023-03-31T09:33:18.326Z,96149.16
2023-03-31T09:35:51.529Z,96153.78
2023-03-31T09:38:24.967Z,96165.50
2023-03-31T09:41:03.756Z,96154.22
2023-03-31T09:43:35.847Z,96146.84
2023-03-31T09:46:24.444Z,96156.16
2023-03-31T09:49:14.406Z,96146.41
2023-03-31T09:51:52.554Z,96129.25
2023-03-31T09:54:33.069Z,96122.44
2023-03-31T09:57:33.758Z,96136.19
2023-03-31T10:00:09.165Z,96127.13
2023-03-31T10:02:50.545Z,96134.25
2023-03-31T10:05:28.496Z,96111.94
2023-03-31T10:08:12.730Z,96118.31
2023-03-31T10:10:48.935Z,96112.16
2023-03-31T10:13:26.993Z,96090.44
2023-03-31T10:16:05.455Z,96076.91
2023-03-31T10:18:42.679Z,96081.06
2023-03-31T10:21:24.252Z,96093.56
2023-03-31T10:24:00.252Z,96102.28
2023-03-31T10:26:32.424Z,96111.44
2023-03-31T10:29:13.300Z,96100.28
2023-03-31T10:31:45.385Z,96095.59
2023-03-31T10:34:19.740Z,96096.22
2023-03-31T10:36:52.393Z,96122.50
2023-03-31T10:39:32.049Z,96132.31
2023-03-31T10:42:04.706Z,96101.03
2023-03-31T10:44:40.025Z,96096.91
2023-03-31T10:47:14.563Z,96086.53
2023-03-31T10:49:50.265Z,96093.09
2023-03-31T10:52:25.053Z,96080.38
2023-03-31T10:55:01.007Z,96084.41
2023-03-31T10:57:44.838Z,96072.59
2023-03-31T11:00:30.289Z,96079.16
2023-03-31T11:03:23.931Z,96050.50
2023-03-31T11:06:31.155Z,96059.78
2023-03-31T11:09:30.824Z,96037.53
2023-03-31T11:12:20.542Z,96044.81
2023-03-31T11:15:21.752Z,96051.00
2023-03-31T11:18:18.515Z,96034.94
2023-03-31T11:20:59.310Z,96035.59
2023-03-31T11:23:43.208Z,96040.00
2023-03-31T11:26:36.384Z,96040.75
2023-03-31T11:29:37.419Z,96066.31
2023-03-31T11:32:31.616Z,96050.97
2023-03-31T11:35:22.339Z,96068.34
2023-03-31T11:38:12.521Z,96092.94
2023-03-31T11:41:19.629Z,96115.44
2023-03-31T11:44:01.029Z,96155.28
2023-03-31T11:46:51.212Z,96153.28
2023-03-31T11:49:35.008Z,96119.31
2023-03-31T11:52:18.623Z,96104.09
2023-03-31T11:55:02.394Z,96120.03
2023-03-31T11:57:55.008Z,96154.88
2023-03-31T12:00:43.711Z,96160.28
2023-03-31T12:03:40.197Z,96168.41
2023-03-31T12:06:17.331Z,96201.19
2023-03-31T12:08:49.267Z,96183.13
2023-03-31T12:11:31.830Z,96154.75
2023-03-31T12:14:32.557Z,96164.34
2023-03-31T12:17:13.061Z,96153.44
2023-03-31T12:19:50.134Z,96143.88
2023-03-31T12:22:35.948Z,96142.69
2023-03-31T12:25:16.398Z,96136.06
2023-03-31T12:27:49.062Z,96122.13
2023-03-31T12:30:30.142Z,96124.63
2023-03-31T12:33:25.204Z,96118.19
2023-03-31T12:36:06.296Z,96111.94
2023-03-31T12:39:00.309Z,96101.78
2023-03-31T12:42:02.967Z,96094.09
2023-03-31T12:44:46.814Z,96083.66
2023-03-31T12:47:21.870Z,96090.03
2023-03-31T12:50:35.305Z,96084.94
2023-03-31T12:53:44.740Z,96080.03
2023-03-31T12:56:16.665Z,96083.16
2023-03-31T12:58:48.549Z,96090.38
2023-03-31T13:01:24.612Z,96080.06
2023-03-31T13:04:22.035Z,96078.09
2023-03-31T13:06:56.609Z,96066.59
2023-03-31T13:09:41.252Z,96057.97
2023-03-31T13:12:25.317Z,96058.78
2023-03-31T13:14:57.710Z,96041.81
2023-03-31T13:17:35.160Z,96040.59
2023-03-31T13:20:33.093Z,96029.03
2023-03-31T13:23:21.734Z,96026.63
2023-03-31T13:25:56.462Z,96028.69
2023-03-31T13:28:40.802Z,96021.13
2023-03-31T13:31:14.777Z,96020.56
2023-03-31T13:33:52.248Z,96004.16
2023-03-31T13:36:55.068Z,95993.66
2023-03-31T13:39:59.644Z,95999.13
2023-03-31T13:43:17.419Z,95998.63
2023-03-31T13:46:17.232Z,95994.81
2023-03-31T13:49:00.710Z,95974.00
2023-03-31T13:51:55.722Z,95967.13
2023-03-31T13:55:00.287Z,95961.38
2023-03-31T13:58:24.927Z,95967.53
2023-03-31T14:01:41.079Z,95977.31
2023-03-31T14:04:27.565Z,95984.94
2023-03-31T14:07:12.445Z,95997.44
2023-03-31T14:09:46.592Z,96014.56
2023-03-31T14:12:35.202Z,96030.22
2023-03-31T14:15:17.736Z,96032.09
2023-03-31T14:17:49.834Z,96052.66
2023-03-31T14:20:21.757Z,96096.63
2023-03-31T14:23:27.073Z,96132.94
2023-03-31T14:26:17.117Z,96098.88
2023-03-31T14:29:01.083Z,96093.56
2023-03-31T14:31:42.323Z,96079.91
2023-03-31T14:34:14.090Z,96076.78
2023-03-31T14:36:52.926Z,96106.03
2023-03-31T14:39:33.428Z,96089.50
2023-03-31T14:42:21.131Z,96082.69
2023-03-31T14:44:58.456Z,96076.59
2023-03-31T14:47:30.516Z,96035.09
2023-03-31T14:50:19.300Z,95963.13
2023-03-31T14:52:52.928Z,95959.59
2023-03-31T14:55:44.087Z,95940.19
2023-03-31T14:58:29.613Z,95924.53
2023-03-31T15:01:05.158Z,95933.47
2023-03-31T15:03:42.101Z,95914.38
2023-03-31T15:06:15.927Z,95920.59
2023-03-31T15:08:48.704Z,95941.47
2023-03-31T15:11:20.924Z,95918.63
2023-03-31T15:14:04.534Z,95908.06
2023-03-31T15:16:43.672Z,95926.75
2023-03-31T15:19:17.202Z,95939.78
2023-03-31T15:21:58.347Z,95960.00
2023-03-31T15:24:31.838Z,95956.72
2023-03-31T15:27:20.393Z,95975.50
2023-03-31T15:29:58.539Z,96009.06
2023-03-31T15:32:35.820Z,95994.56
2023-03-31T15:35:22.346Z,96002.09
2023-03-31T15:37:57.782Z,96027.47
2023-03-31T15:40:38.874Z,96029.00
2023-03-31T15:43:26.809Z,96011.38
2023-03-31T15:46:00.960Z,96008.25
2023-03-31T15:48:38.601Z,96010.09
2023-03-31T15:51:13.299Z,96005.97
2023-03-31T15:53:51.032Z,95989.91
2023-03-31T15:56:42.537Z,95982.91
2023-03-31T15:59:34.122Z,96009.22
2023-03-31T16:02:16.108Z,95997.97
2023-03-31T16:04:50.949Z,95986.53
2023-03-31T16:07:34.663Z,95972.13
2023-03-31T16:10:20.682Z,95937.94
2023-03-31T16:13:05.443Z,95928.66
2023-03-31T16:15:46.161Z,95943.19
2023-03-31T16:18:30.537Z,95927.69
2023-03-31T16:21:05.511Z,95942.81
2023-03-31T16:23:40.073Z,95935.84
2023-03-31T16:26:12.165Z,95943.81
2023-03-31T16:28:51.064Z,95942.72
2023-03-31T16:31:36.547Z,95935.00
2023-03-31T16:34:11.375Z,95981.31
2023-03-31T16:36:43.304Z,95990.03
2023-03-31T16:39:15.387Z,96024.34
2023-03-31T16:41:47.240Z,96029.09
2023-03-31T16:44:19.373Z,96030.72
2023-03-31T16:46:51.580Z,96079.25
2023-03-31T16:49:24.629Z,96085.78
2023-03-31T16:51:56.458Z,96106.88
2023-03-31T16:54:28.333Z,96123.41
2023-03-31T16:57:00.327Z,96135.34
2023-03-31T16:59:32.290Z,96128.97
2023-03-31T17:02:04.070Z,96142.03
2023-03-31T17:04:35.985Z,96126.47
2023-03-31T17:07:07.789Z,96143.41
2023-03-31T17:09:39.794Z,96143.97
2023-03-31T17:12:11.676Z,96141.66
2023-03-31T17:14:43.442Z,96130.69
2023-03-31T17:17:17.788Z,96142.78
2023-03-31T17:19:49.776Z,96145.00
2023-03-31T17:22:21.746Z,96153.72
2023-03-31T17:24:53.669Z,96137.66
2023-03-31T17:27:26.872Z,96139.81
2023-03-31T17:29:58.527Z,96153.66
2023-03-31T17:32:30.848Z,96147.25
2023-03-31T17:35:02.777Z,96152.09
2023-03-31T17:37:34.577Z,96158.47
2023-03-31T17:40:07.063Z,96177.09
2023-03-31T17:42:39.129Z,96205.03
2023-03-31T17:45:11.428Z,96231.59
2023-03-31T17:47:43.312Z,96250.16
2023-03-31T17:50:15.396Z,96247.19
2023-03-31T17:52:47.791Z,96260.56
2023-03-31T17:55:19.999Z,96276.16
2023-03-31T17:57:52.061Z,96273.47
2023-03-31T18:00:23.963Z,96276.38
2023-03-31T18:02:55.792Z,96279.78
2023-03-31T18:05:27.702Z,96284.66
2023-03-31T18:07:59.572Z,96292.00
2023-03-31T18:10:32.138Z,96271.81
2023-03-31T18:13:04.681Z,96282.31
2023-03-31T18:15:36.827Z,96275.09
2023-03-31T18:18:08.988Z,96263.47
2023-03-31T18:20:41.722Z,96274.16
2023-03-31T18:23:13.813Z,96275.75
2023-03-31T18:25:46.331Z,96278.25
2023-03-31T18:28:18.636Z,96268.75
2023-03-31T18:30:50.364Z,96272.53
2023-03-31T18:33:22.390Z,96263.94
2023-03-31T18:35:54.295Z,96256.25
2023-03-31T18:38:26.870Z,96261.28
2023-03-31T18:40:58.954Z,96255.84
2023-03-31T18:43:33.140Z,96244.38
2023-03-31T18:46:05.324Z,96257.47
2023-03-31T18:48:37.368Z,96268.22
2023-03-31T18:51:11.425Z,96278.78
2023-03-31T18:53:43.189Z,96294.56
2023-03-31T18:56:15.161Z,96299.47
2023-03-31T18:58:46.991Z,96298.63
2023-03-31T19:01:19.728Z,96299.88
2023-03-31T19:03:52.063Z,96301.41
2023-03-31T19:06:24.306Z,96298.97
2023-03-31T19:08:56.749Z,96309.47
2023-03-31T19:11:29.520Z,96319.06
2023-03-31T19:14:01.791Z,96327.25
2023-03-31T19:16:34.962Z,96327.69
2023-03-31T19:19:07.249Z,96324.72
2023-03-31T19:21:40.517Z,96319.75
2023-03-31T19:24:12.690Z,96321.63
2023-03-31T19:26:44.381Z,96336.13
2023-03-31T19:29:18.840Z,96300.28
2023-03-31T19:31:50.948Z,96323.53
2023-03-31T19:34:23.114Z,96320.94
2023-03-31T19:36:54.864Z,96314.66
2023-03-31T19:39:26.635Z,96319.00
2023-03-31T19:41:58.369Z,96327.56
2023-03-31T19:44:30.061Z,96339.66
2023-03-31T19:47:01.898Z,96326.03
2023-03-31T19:49:33.773Z,96331.69
2023-03-31T19:52:05.824Z,96326.25
2023-03-31T19:54:37.660Z,96317.56
2023-03-31T19:57:09.408Z,96331.59
2023-03-31T19:59:41.238Z,96336.03
2023-03-31T20:02:13.356Z,96332.94
2023-03-31T20:04:45.505Z,96332.44
2023-03-31T20:07:17.475Z,96327.44
2023-03-31T20:09:49.175Z,96329.00
2023-03-31T20:12:21.164Z,96330.88
2023-03-31T20:14:52.987Z,96337.19
2023-03-31T20:17:24.731Z,96329.78
2023-03-31T20:19:56.568Z,96332.03
2023-03-31T20:22:28.887Z,96332.84
2023-03-31T20:25:00.756Z,96326.66
2023-03-31T20:27:32.670Z,96325.34
2023-03-31T20:30:05.012Z,96339.09
2023-03-31T20:32:39.051Z,96331.94
2023-03-31T20:35:10.851Z,96325.16
2023-03-31T20:37:42.510Z,96323.25
2023-03-31T20:40:14.276Z,96324.44
2023-03-31T20:42:46.061Z,96318.94
2023-03-31T20:45:18.268Z,96324.94
2023-03-31T20:47:50.177Z,96333.50
2023-03-31T20:50:21.976Z,96334.63
2023-03-31T20:52:53.735Z,96324.53
2023-03-31T20:55:25.454Z,96330.44
2023-03-31T20:57:57.518Z,96329.06
2023-03-31T21:00:29.455Z,96334.53
2023-03-31T21:03:01.378Z,96347.97
2023-03-31T21:05:43.792Z,96344.81
2023-03-31T21:08:15.988Z,96354.28
2023-03-31T21:10:47.977Z,96353.31
2023-03-31T21:13:20.115Z,96343.16
2023-03-31T21:15:52.523Z,96350.94
2023-03-31T21:18:29.420Z,96337.81
2023-03-31T21:21:13.201Z,96344.59
2023-03-31T21:23:45.971Z,96358.56
2023-03-31T21:26:18.230Z,96348.38
2023-03-31T21:28:51.884Z,96350.03
2023-03-31T21:31:25.439Z,96353.22
2023-03-31T21:33:57.410Z,96351.91
2023-03-31T21:36:29.469Z,96351.09
2023-03-31T21:39:01.337Z,96332.41
2023-03-31T21:41:33.392Z,96340.19
2023-03-31T21:44:05.372Z,96338.59
2023-03-31T21:46:38.563Z,96326.28
2023-03-31T21:49:10.843Z,96312.34
2023-03-31T21:51:42.585Z,96327.75
2023-03-31T21:54:14.674Z,96333.69
2023-03-31T21:56:46.431Z,96322.50
2023-03-31T21:59:18.915Z,96337.72
2023-03-31T22:01:51.760Z,96332.56
2023-03-31T22:04:23.624Z,96334.47
2023-03-31T22:06:55.676Z,96338.59
2023-03-31T22:09:27.649Z,96321.31
2023-03-31T22:11:59.618Z,96334.25
2023-03-31T22:14:31.540Z,96336.16
2023-03-31T22:17:04.045Z,96341.78
2023-03-31T22:19:36.153Z,96335.88
2023-03-31T22:22:09.805Z,96334.88
2023-03-31T22:24:41.621Z,96330.75
2023-03-31T22:27:13.600Z,96345.84
2023-03-31T22:29:45.281Z,96353.22
2023-03-31T22:32:17.025Z,96360.03
2023-03-31T22:34:48.723Z,96360.19
2023-03-31T22:37:20.577Z,96348.88
2023-03-31T22:39:52.268Z,96355.72
2023-03-31T22:42:23.901Z,96343.75
2023-03-31T22:44:55.581Z,96347.44
2023-03-31T22:47:27.599Z,96349.75
2023-03-31T22:49:59.335Z,96355.97
2023-03-31T22:52:31.382Z,96340.06
2023-03-31T22:55:03.226Z,96349.28
2023-03-31T22:57:35.325Z,96355.31
2023-03-31T23:00:07.664Z,96352.06
2023-03-31T23:02:40.079Z,96364.16
2023-03-31T23:05:11.748Z,96366.84
2023-03-31T23:07:43.374Z,96379.91
2023-03-31T23:10:15.053Z,96370.97
2023-03-31T23:12:46.887Z,96375.53
2023-03-31T23:15:18.725Z,96381.09
2023-03-31T23:17:50.623Z,96382.78
2023-03-31T23:20:22.662Z,96375.97
2023-03-31T23:22:54.573Z,96384.00
2023-03-31T23:25:26.395Z,96380.13
2023-03-31T23:27:58.660Z,96381.22
2023-03-31T23:30:30.616Z,96383.59
2023-03-31T23:33:04.108Z,96385.03
2023-03-31T23:35:35.955Z,96382.41
2023-03-31T23:38:08.019Z,96385.25
2023-03-31T23:40:39.966Z,96376.22
2023-03-31T23:43:15.660Z,96373.81
2023-03-31T23:45:47.328Z,96372.47
2023-03-31T23:48:20.772Z,96374.59
2023-03-31T23:50:52.503Z,96364.94
2023-03-31T23:53:24.907Z,96372.38
2023-03-31T23:55:58.998Z,96364.09
2023-03-31T23:58:32.284Z,96359.91
